createdAt,value
2018-08-16T00:02:20.972Z,78.74
2018-08-16T00:04:48.319Z,78.35
2018-08-16T00:07:15.646Z,78.17
2018-08-16T00:09:42.968Z,78.96
2018-08-16T00:12:10.316Z,78.82
2018-08-16T00:14:37.696Z,79.16
2018-08-16T00:17:05.732Z,79.60
2018-08-16T00:19:33.092Z,78.83
2018-08-16T00:22:00.437Z,79.09
2018-08-16T00:24:28.291Z,79.68
2018-08-16T00:26:55.772Z,79.40
2018-08-16T00:29:23.113Z,79.93
2018-08-16T00:31:51.151Z,79.47
2018-08-16T00:34:18.428Z,79.97
2018-08-16T00:36:45.868Z,79.70
2018-08-16T00:39:13.175Z,80.12
2018-08-16T00:41:40.451Z,79.84
2018-08-16T00:44:07.726Z,80.56
2018-08-16T00:46:35.038Z,79.83
2018-08-16T00:49:02.286Z,80.23
2018-08-16T00:51:29.923Z,80.30
2018-08-16T00:53:57.205Z,80.55
2018-08-16T00:56:24.435Z,80.75
2018-08-16T00:58:51.843Z,80.74
2018-08-16T01:01:19.253Z,80.92
2018-08-16T01:03:46.563Z,80.55
2018-08-16T01:06:13.803Z,80.51
2018-08-16T01:08:41.098Z,80.54
2018-08-16T01:11:08.492Z,80.81
2018-08-16T01:13:35.790Z,80.43
2018-08-16T01:16:03.085Z,80.89
2018-08-16T01:18:30.473Z,81.35
2018-08-16T01:20:57.838Z,81.44
2018-08-16T01:23:25.238Z,80.99
2018-08-16T01:25:52.608Z,80.50
2018-08-16T01:28:19.915Z,80.31
2018-08-16T01:30:47.274Z,80.55
2018-08-16T01:33:14.552Z,81.12
2018-08-16T01:35:41.925Z,81.06
2018-08-16T01:38:09.194Z,80.50
2018-08-16T01:40:36.484Z,80.20
2018-08-16T01:43:03.747Z,80.07
2018-08-16T01:45:31.077Z,80.67
2018-08-16T01:47:58.399Z,79.87
2018-08-16T01:50:25.746Z,81.12
2018-08-16T01:52:53.001Z,80.69
2018-08-16T01:55:20.360Z,80.67
2018-08-16T01:57:48.180Z,81.37
2018-08-16T02:00:15.592Z,81.42
2018-08-16T02:02:42.883Z,81.37
2018-08-16T02:05:10.363Z,81.08
2018-08-16T02:07:37.628Z,80.75
2018-08-16T02:10:05.895Z,80.55
2018-08-16T02:12:33.193Z,81.21
2018-08-16T02:15:00.496Z,80.57
2018-08-16T02:17:27.758Z,80.93
2018-08-16T02:19:55.028Z,81.27
2018-08-16T02:22:22.436Z,81.02
2018-08-16T02:24:49.704Z,81.02
2018-08-16T02:27:16.937Z,81.48
2018-08-16T02:29:44.162Z,81.94
2018-08-16T02:32:11.367Z,82.21
2018-08-16T02:34:38.657Z,81.93
2018-08-16T02:37:06.009Z,81.04
2018-08-16T02:39:33.263Z,81.24
2018-08-16T02:42:00.553Z,81.77
2018-08-16T02:44:27.964Z,82.54
2018-08-16T02:46:55.214Z,82.71
2018-08-16T02:49:22.493Z,82.09
2018-08-16T02:51:49.838Z,82.75
2018-08-16T02:54:17.165Z,83.02
2018-08-16T02:56:44.500Z,82.45
2018-08-16T02:59:11.703Z,83.01
2018-08-16T03:01:40.424Z,83.65
2018-08-16T03:04:07.767Z,83.90
2018-08-16T03:06:35.176Z,83.74
2018-08-16T03:09:02.569Z,84.29
2018-08-16T03:11:29.827Z,83.64
2018-08-16T03:13:57.087Z,84.72
2018-08-16T03:16:24.427Z,83.65
2018-08-16T03:18:51.711Z,84.04
2018-08-16T03:21:19.029Z,84.23
2018-08-16T03:23:46.253Z,83.48
2018-08-16T03:26:13.578Z,83.56
2018-08-16T03:28:40.965Z,84.13
2018-08-16T03:31:08.251Z,83.42
2018-08-16T03:33:35.622Z,83.70
2018-08-16T03:36:02.952Z,84.28
2018-08-16T03:38:30.281Z,84.64
2018-08-16T03:40:57.619Z,84.83
2018-08-16T03:43:24.944Z,84.96
2018-08-16T03:45:52.230Z,84.83
2018-08-16T03:48:19.485Z,85.27
2018-08-16T03:50:46.857Z,85.53
2018-08-16T03:53:14.114Z,83.22
2018-08-16T03:55:41.414Z,83.36
2018-08-16T03:58:08.732Z,83.93
2018-08-16T04:00:36.121Z,83.94
2018-08-16T04:03:03.387Z,84.20
2018-08-16T04:05:30.711Z,84.36
2018-08-16T04:07:57.966Z,83.79
2018-08-16T04:10:25.236Z,83.59
2018-08-16T04:12:52.443Z,84.01
2018-08-16T04:15:19.731Z,83.79
2018-08-16T04:17:48.741Z,84.03
2018-08-16T04:20:16.041Z,84.17
2018-08-16T04:22:43.315Z,83.74
2018-08-16T04:25:10.593Z,83.47
2018-08-16T04:27:37.861Z,82.96
2018-08-16T04:30:05.549Z,82.89
2018-08-16T04:32:32.790Z,83.03
2018-08-16T04:35:00.031Z,83.53
2018-08-16T04:37:27.294Z,82.90
2018-08-16T04:39:54.575Z,83.52
2018-08-16T04:42:21.905Z,83.01
2018-08-16T04:44:49.175Z,83.40
2018-08-16T04:47:16.476Z,83.94
2018-08-16T04:49:43.729Z,84.90
2018-08-16T04:52:11.020Z,85.30
2018-08-16T04:54:38.272Z,84.19
2018-08-16T04:57:05.558Z,84.00
2018-08-16T04:59:32.837Z,83.75
2018-08-16T05:02:00.091Z,82.45
2018-08-16T05:04:27.353Z,82.79
2018-08-16T05:06:54.742Z,83.29
2018-08-16T05:09:22.084Z,83.92
2018-08-16T05:11:49.357Z,83.96
2018-08-16T05:14:16.657Z,84.39
2018-08-16T05:16:43.956Z,83.66
2018-08-16T05:19:12.076Z,84.01
2018-08-16T05:21:39.484Z,83.67
2018-08-16T05:24:06.798Z,83.93
2018-08-16T05:26:34.097Z,83.23
2018-08-16T05:29:01.528Z,83.22
2018-08-16T05:31:28.937Z,83.31
2018-08-16T05:33:56.277Z,81.89
2018-08-16T05:36:23.723Z,82.61
2018-08-16T05:38:51.002Z,81.66
2018-08-16T05:41:18.446Z,79.61
2018-08-16T05:43:45.739Z,80.14
2018-08-16T05:46:13.123Z,79.94
2018-08-16T05:48:40.476Z,79.87
2018-08-16T05:51:07.735Z,80.08
2018-08-16T05:53:35.316Z,79.14
2018-08-16T05:56:02.620Z,79.65
2018-08-16T05:58:29.933Z,80.28
2018-08-16T06:00:57.278Z,80.07
2018-08-16T06:03:24.540Z,78.78
2018-08-16T06:05:51.939Z,78.15
2018-08-16T06:08:19.122Z,77.57
2018-08-16T06:10:46.522Z,77.39
2018-08-16T06:13:13.838Z,77.19
2018-08-16T06:15:41.081Z,76.57
2018-08-16T06:18:08.532Z,76.53
2018-08-16T06:20:35.770Z,75.37
2018-08-16T06:23:03.066Z,75.45
2018-08-16T06:25:30.373Z,74.62
2018-08-16T06:27:57.708Z,74.95
2018-08-16T06:30:25.044Z,75.32
2018-08-16T06:32:52.302Z,74.91
2018-08-16T06:35:19.718Z,74.23
2018-08-16T06:37:47.096Z,73.38
2018-08-16T06:40:16.052Z,73.14
2018-08-16T06:42:43.641Z,72.83
2018-08-16T06:45:10.942Z,72.25
2018-08-16T06:47:38.301Z,72.63
2018-08-16T06:50:05.735Z,72.33
2018-08-16T06:52:33.196Z,71.80
2018-08-16T06:55:01.125Z,71.04
2018-08-16T06:57:28.473Z,70.99
2018-08-16T06:59:55.803Z,70.66
2018-08-16T07:02:23.038Z,70.15
2018-08-16T07:04:50.402Z,68.93
2018-08-16T07:07:17.578Z,68.79
2018-08-16T07:09:44.899Z,68.22
2018-08-16T07:12:12.303Z,68.65
2018-08-16T07:14:39.463Z,67.80
2018-08-16T07:17:06.817Z,66.09
2018-08-16T07:19:34.072Z,65.37
2018-08-16T07:22:01.430Z,63.39
2018-08-16T07:24:28.727Z,61.13
2018-08-16T07:26:56.079Z,60.48
2018-08-16T07:29:23.362Z,58.60
2018-08-16T07:31:50.557Z,56.99
2018-08-16T07:34:17.841Z,54.87
2018-08-16T07:36:45.067Z,54.75
2018-08-16T07:39:12.504Z,54.45
2018-08-16T07:41:39.838Z,53.95
2018-08-16T07:44:07.423Z,52.81
2018-08-16T07:46:34.756Z,52.33
2018-08-16T07:49:02.338Z,53.27
2018-08-16T07:51:29.895Z,53.83
2018-08-16T07:53:57.194Z,53.62
2018-08-16T07:56:24.591Z,54.67
2018-08-16T07:58:52.246Z,54.74
2018-08-16T08:01:19.626Z,54.22
2018-08-16T08:03:47.058Z,54.73
2018-08-16T08:06:15.007Z,54.22
2018-08-16T08:08:43.174Z,54.37
2018-08-16T08:11:10.523Z,54.19
2018-08-16T08:13:37.910Z,53.74
2018-08-16T08:16:05.346Z,52.78
2018-08-16T08:18:32.742Z,52.79
2018-08-16T08:21:00.079Z,52.37
2018-08-16T08:23:27.443Z,52.66
2018-08-16T08:25:54.905Z,51.62
2018-08-16T08:28:22.338Z,52.95
2018-08-16T08:30:50.043Z,52.86
2018-08-16T08:33:17.529Z,51.39
2018-08-16T08:35:55.134Z,50.75
2018-08-16T08:38:22.575Z,49.20
2018-08-16T08:40:49.893Z,50.03
2018-08-16T08:43:27.691Z,51.28
2018-08-16T08:45:55.160Z,49.33
2018-08-16T08:48:22.523Z,48.32
2018-08-16T08:50:49.954Z,48.57
2018-08-16T08:53:33.787Z,46.99
2018-08-16T08:56:12.709Z,48.10
2018-08-16T08:58:48.583Z,46.68
2018-08-16T09:01:16.405Z,45.43
2018-08-16T09:03:43.957Z,46.52
2018-08-16T09:06:11.832Z,45.52
2018-08-16T09:08:39.234Z,44.72
2018-08-16T09:11:18.986Z,45.77
2018-08-16T09:14:02.258Z,43.83
2018-08-16T09:16:34.003Z,44.99
2018-08-16T09:19:01.671Z,44.37
2018-08-16T09:21:29.662Z,45.01
2018-08-16T09:23:57.147Z,45.00
2018-08-16T09:26:30.320Z,44.40
2018-08-16T09:28:58.117Z,44.01
2018-08-16T09:31:37.070Z,42.57
2018-08-16T09:34:17.012Z,42.29
2018-08-16T09:36:44.308Z,42.98
2018-08-16T09:39:11.694Z,42.52
2018-08-16T09:41:39.408Z,42.38
2018-08-16T09:44:06.973Z,42.22
2018-08-16T09:47:02.175Z,41.79
2018-08-16T09:49:31.915Z,41.40
2018-08-16T09:51:59.396Z,42.10
2018-08-16T09:54:26.712Z,41.71
2018-08-16T09:56:54.788Z,41.66
2018-08-16T09:59:22.027Z,41.10
2018-08-16T10:01:49.456Z,40.95
2018-08-16T10:04:16.878Z,40.46
2018-08-16T10:06:44.597Z,40.23
2018-08-16T10:09:16.858Z,41.05
2018-08-16T10:11:44.760Z,40.10
2018-08-16T10:14:12.042Z,40.17
2018-08-16T10:16:39.482Z,39.77
2018-08-16T10:19:06.890Z,39.59
2018-08-16T10:21:34.452Z,39.63
2018-08-16T10:24:02.349Z,38.67
2018-08-16T10:26:29.663Z,38.86
2018-08-16T10:28:56.986Z,38.53
2018-08-16T10:31:24.323Z,38.99
2018-08-16T10:33:51.882Z,38.61
2018-08-16T10:36:19.470Z,38.67
2018-08-16T10:38:46.990Z,37.81
2018-08-16T10:41:14.290Z,38.70
2018-08-16T10:43:41.646Z,38.73
2018-08-16T10:46:08.885Z,37.00
2018-08-16T10:48:36.219Z,37.01
2018-08-16T10:51:03.578Z,36.44
2018-08-16T10:53:30.938Z,35.85
2018-08-16T10:55:59.034Z,36.69
2018-08-16T10:58:26.263Z,35.48
2018-08-16T11:00:53.565Z,37.11
2018-08-16T11:03:21.798Z,36.30
2018-08-16T11:05:49.191Z,34.24
2018-08-16T11:08:16.732Z,35.69
2018-08-16T11:13:11.901Z,34.96
2018-08-16T11:15:39.190Z,34.60
2018-08-16T11:18:06.766Z,33.58
2018-08-16T11:20:34.063Z,34.88
2018-08-16T11:23:01.390Z,32.55
2018-08-16T11:25:28.732Z,32.90
2018-08-16T11:27:56.132Z,32.96
2018-08-16T11:30:23.446Z,32.91
2018-08-16T11:32:50.724Z,33.12
2018-08-16T11:35:18.182Z,31.28
2018-08-16T11:37:45.546Z,31.48
2018-08-16T11:40:12.850Z,31.85
2018-08-16T11:42:40.240Z,30.97
2018-08-16T11:45:07.762Z,32.29
2018-08-16T11:47:35.108Z,32.85
2018-08-16T11:50:02.518Z,32.38
2018-08-16T11:52:29.844Z,31.49
2018-08-16T11:54:57.175Z,33.09
2018-08-16T11:57:24.549Z,32.54
2018-08-16T11:59:51.910Z,32.89
2018-08-16T12:02:19.205Z,32.63
2018-08-16T12:04:46.527Z,32.66
2018-08-16T12:07:13.775Z,32.77
2018-08-16T12:09:41.156Z,31.17
2018-08-16T12:12:08.497Z,31.91
2018-08-16T12:14:35.825Z,31.37
2018-08-16T12:17:03.528Z,32.27
2018-08-16T12:19:30.953Z,31.06
2018-08-16T12:21:58.231Z,30.74
2018-08-16T12:24:25.608Z,29.79
2018-08-16T12:26:52.922Z,31.13
2018-08-16T12:29:20.451Z,31.43
2018-08-16T12:31:47.768Z,32.04
2018-08-16T12:34:15.028Z,32.22
2018-08-16T12:36:42.381Z,31.65
2018-08-16T12:39:09.791Z,31.64
2018-08-16T12:41:37.070Z,31.02
2018-08-16T12:44:04.396Z,30.38
2018-08-16T12:46:31.767Z,30.76
2018-08-16T12:48:59.105Z,30.69
2018-08-16T12:51:26.407Z,30.44
2018-08-16T12:53:53.767Z,30.50
2018-08-16T12:56:21.063Z,30.63
2018-08-16T12:58:48.445Z,29.65
2018-08-16T13:01:15.756Z,28.44
2018-08-16T13:03:43.080Z,27.49
2018-08-16T13:06:10.478Z,27.86
2018-08-16T13:08:37.795Z,27.99
2018-08-16T13:11:05.560Z,26.95
2018-08-16T13:13:32.846Z,27.36
2018-08-16T13:16:00.087Z,26.84
2018-08-16T13:18:27.376Z,26.88
2018-08-16T13:20:54.735Z,25.97
2018-08-16T13:23:22.145Z,25.91
2018-08-16T13:25:49.483Z,26.21
2018-08-16T13:28:17.768Z,25.22
2018-08-16T13:30:45.081Z,25.70
2018-08-16T13:33:12.551Z,26.34
2018-08-16T13:35:39.909Z,26.04
2018-08-16T13:38:07.256Z,26.52
2018-08-16T13:40:35.263Z,26.65
2018-08-16T13:43:02.612Z,27.54
2018-08-16T13:45:29.983Z,27.44
2018-08-16T13:47:57.301Z,28.49
2018-08-16T13:50:24.847Z,28.54
2018-08-16T13:52:52.130Z,29.50
2018-08-16T13:55:19.432Z,27.97
2018-08-16T13:57:46.741Z,28.32
2018-08-16T14:00:14.010Z,29.08
2018-08-16T14:02:41.592Z,29.14
2018-08-16T14:05:09.123Z,29.44
2018-08-16T14:07:36.412Z,29.17
2018-08-16T14:10:04.339Z,28.49
2018-08-16T14:12:31.628Z,28.76
2018-08-16T14:14:58.958Z,28.77
2018-08-16T14:17:26.384Z,28.77
2018-08-16T14:19:53.890Z,28.71
2018-08-16T14:22:21.188Z,27.63
2018-08-16T14:24:48.460Z,25.99
2018-08-16T14:27:15.725Z,25.00
2018-08-16T14:29:43.030Z,24.88
2018-08-16T14:32:10.478Z,26.01
2018-08-16T14:34:37.761Z,26.88
2018-08-16T14:37:05.762Z,26.17
2018-08-16T14:39:33.017Z,26.64
2018-08-16T14:42:00.388Z,26.32
2018-08-16T14:44:27.712Z,25.81
2018-08-16T14:46:55.038Z,25.81
2018-08-16T14:49:22.467Z,25.82
2018-08-16T14:51:49.910Z,25.27
2018-08-16T14:54:17.212Z,25.06
2018-08-16T14:56:47.305Z,26.33
2018-08-16T14:59:15.876Z,26.37
2018-08-16T15:01:43.576Z,25.88
2018-08-16T15:04:10.925Z,24.95
2018-08-16T15:06:38.272Z,24.06
2018-08-16T15:09:08.588Z,22.66
2018-08-16T15:11:35.933Z,22.96
2018-08-16T15:14:03.265Z,22.53
2018-08-16T15:16:30.890Z,22.82
2018-08-16T15:18:58.344Z,21.67
2018-08-16T15:21:25.708Z,23.10
2018-08-16T15:23:53.022Z,22.68
2018-08-16T15:26:20.377Z,23.15
2018-08-16T15:28:47.795Z,22.35
2018-08-16T15:31:15.542Z,22.71
2018-08-16T15:33:43.332Z,22.85
2018-08-16T15:36:10.681Z,23.83
2018-08-16T15:38:37.990Z,24.20
2018-08-16T15:41:05.436Z,24.88
2018-08-16T15:43:33.751Z,24.56
2018-08-16T15:46:02.583Z,24.85
2018-08-16T15:48:30.521Z,24.87
2018-08-16T15:50:57.916Z,25.19
2018-08-16T15:53:25.298Z,24.84
2018-08-16T15:55:52.637Z,25.17
2018-08-16T15:58:19.988Z,25.20
2018-08-16T16:00:47.372Z,23.87
2018-08-16T16:03:14.667Z,23.68
2018-08-16T16:05:43.390Z,25.26
2018-08-16T16:08:10.847Z,25.28
2018-08-16T16:10:38.181Z,26.41
2018-08-16T16:13:05.628Z,25.54
2018-08-16T16:15:32.965Z,25.71
2018-08-16T16:18:00.322Z,25.08
2018-08-16T16:20:27.604Z,25.34
2018-08-16T16:22:54.882Z,25.29
2018-08-16T16:25:22.172Z,25.99
2018-08-16T16:27:49.471Z,25.81
2018-08-16T16:30:16.689Z,26.88
2018-08-16T16:32:44.030Z,27.13
2018-08-16T16:35:11.368Z,27.46
2018-08-16T16:37:38.593Z,28.31
2018-08-16T16:40:07.283Z,27.98
2018-08-16T16:42:34.557Z,28.45
2018-08-16T16:45:01.946Z,28.54
2018-08-16T16:47:29.217Z,29.02
2018-08-16T16:49:56.508Z,29.57
2018-08-16T16:52:23.975Z,28.60
2018-08-16T16:54:51.343Z,29.19
2018-08-16T16:57:18.659Z,29.66
2018-08-16T16:59:45.968Z,28.99
2018-08-16T17:02:13.285Z,29.83
2018-08-16T17:04:40.604Z,29.69
2018-08-16T17:07:07.944Z,29.62
2018-08-16T17:09:35.160Z,29.53
2018-08-16T17:12:02.464Z,30.53
2018-08-16T17:14:29.802Z,30.74
2018-08-16T17:16:57.112Z,30.41
2018-08-16T17:19:24.404Z,31.60
2018-08-16T17:21:51.707Z,32.18
2018-08-16T17:24:19.009Z,32.02
2018-08-16T17:26:46.266Z,32.91
2018-08-16T17:29:13.652Z,33.19
2018-08-16T17:31:40.966Z,33.98
2018-08-16T17:34:08.208Z,34.13
2018-08-16T17:36:35.465Z,35.31
2018-08-16T17:39:04.031Z,35.04
2018-08-16T17:41:31.285Z,35.06
2018-08-16T17:43:58.643Z,35.65
2018-08-16T17:46:25.990Z,35.00
2018-08-16T17:48:54.126Z,36.17
2018-08-16T17:51:21.428Z,36.31
2018-08-16T17:53:48.660Z,36.89
2018-08-16T17:56:15.953Z,36.72
2018-08-16T17:58:43.327Z,38.12
2018-08-16T18:01:10.635Z,37.80
2018-08-16T18:03:37.926Z,37.22
2018-08-16T18:06:05.318Z,38.21
2018-08-16T18:08:32.684Z,37.58
2018-08-16T18:11:00.001Z,38.35
2018-08-16T18:13:27.309Z,38.63
2018-08-16T18:15:54.613Z,38.85
2018-08-16T18:18:21.897Z,39.21
2018-08-16T18:20:49.277Z,39.41
2018-08-16T18:23:16.651Z,39.15
2018-08-16T18:25:44.216Z,39.35
2018-08-16T18:28:11.627Z,40.04
2018-08-16T18:30:39.027Z,39.34
2018-08-16T18:33:06.365Z,39.66
2018-08-16T18:35:33.647Z,39.83
2018-08-16T18:38:01.680Z,40.44
2018-08-16T18:40:28.887Z,40.18
2018-08-16T18:42:56.197Z,40.58
2018-08-16T18:45:23.483Z,40.79
2018-08-16T18:47:50.810Z,41.90
2018-08-16T18:50:18.075Z,42.52
2018-08-16T18:52:45.341Z,41.79
2018-08-16T18:55:12.612Z,43.42
2018-08-16T18:57:39.879Z,42.68
2018-08-16T19:00:07.912Z,43.54
2018-08-16T19:02:35.285Z,42.88
2018-08-16T19:05:02.664Z,43.00
2018-08-16T19:07:29.983Z,43.72
2018-08-16T19:09:57.219Z,43.94
2018-08-16T19:12:24.561Z,44.55
2018-08-16T19:14:51.782Z,44.34
2018-08-16T19:17:19.164Z,44.17
2018-08-16T19:19:46.506Z,44.83
2018-08-16T19:22:13.799Z,45.55
2018-08-16T19:24:41.098Z,45.95
2018-08-16T19:27:08.496Z,46.55
2018-08-16T19:29:35.758Z,45.92
2018-08-16T19:32:03.181Z,46.63
2018-08-16T19:34:30.509Z,46.75
2018-08-16T19:36:57.888Z,46.07
2018-08-16T19:39:25.319Z,46.23
2018-08-16T19:44:44.909Z,46.53
2018-08-16T19:47:12.313Z,47.44
2018-08-16T19:49:39.643Z,47.57
2018-08-16T19:52:06.955Z,47.57
2018-08-16T19:54:34.195Z,48.08
2018-08-16T19:57:01.631Z,47.65
2018-08-16T19:59:28.923Z,48.54
2018-08-16T20:01:56.314Z,47.94
2018-08-16T20:04:23.616Z,48.33
2018-08-16T20:06:50.861Z,48.98
2018-08-16T20:09:18.160Z,49.69
2018-08-16T20:11:45.507Z,50.00
2018-08-16T20:14:12.855Z,49.96
2018-08-16T20:16:40.155Z,50.79
2018-08-16T20:19:20.030Z,51.24
2018-08-16T20:21:47.651Z,51.17
2018-08-16T20:24:14.980Z,52.11
2018-08-16T20:26:42.240Z,51.16
2018-08-16T20:29:09.625Z,51.82
2018-08-16T20:31:36.893Z,51.87
2018-08-16T20:34:04.365Z,52.57
2018-08-16T20:36:31.633Z,52.39
2018-08-16T20:38:58.915Z,52.33
2018-08-16T20:41:26.188Z,51.83
2018-08-16T20:43:53.631Z,52.23
2018-08-16T20:46:20.955Z,52.25
2018-08-16T20:48:48.394Z,52.45
2018-08-16T20:51:15.742Z,53.37
2018-08-16T20:53:43.071Z,52.99
2018-08-16T20:56:10.376Z,53.37
2018-08-16T20:58:37.703Z,53.36
2018-08-16T21:01:05.283Z,53.31
2018-08-16T21:03:32.522Z,53.22
2018-08-16T21:05:59.850Z,53.52
2018-08-16T21:08:27.114Z,53.97
2018-08-16T21:10:54.413Z,53.99
2018-08-16T21:13:21.672Z,54.33
2018-08-16T21:15:48.973Z,54.77
2018-08-16T21:18:16.256Z,55.05
2018-08-16T21:20:43.603Z,55.05
2018-08-16T21:23:11.058Z,54.74
2018-08-16T21:25:38.425Z,55.84
2018-08-16T21:28:05.915Z,55.92
2018-08-16T21:30:33.355Z,55.61
2018-08-16T21:33:03.725Z,56.35
2018-08-16T21:35:31.079Z,56.56
2018-08-16T21:37:58.374Z,55.90
2018-08-16T21:40:25.697Z,56.41
2018-08-16T21:42:53.046Z,56.59
2018-08-16T21:45:20.348Z,57.19
2018-08-16T21:47:47.724Z,57.00
2018-08-16T21:50:14.981Z,57.10
2018-08-16T21:52:42.565Z,56.99
2018-08-16T21:55:09.884Z,57.05
2018-08-16T21:57:37.245Z,56.95
2018-08-16T22:00:06.027Z,58.06
2018-08-16T22:02:33.293Z,58.19
2018-08-16T22:05:00.596Z,58.38
2018-08-16T22:08:04.796Z,57.82
2018-08-16T22:10:32.425Z,58.76
2018-08-16T22:13:00.070Z,58.47
2018-08-16T22:15:27.476Z,58.54
2018-08-16T22:20:47.484Z,58.86
2018-08-16T22:23:14.717Z,59.27
2018-08-16T22:25:42.042Z,59.32
2018-08-16T22:28:09.354Z,59.98
2018-08-16T22:30:36.763Z,59.93
2018-08-16T22:33:04.134Z,60.33
2018-08-16T22:35:31.420Z,60.24
2018-08-16T22:37:58.780Z,60.12
2018-08-16T22:40:26.093Z,60.06
2018-08-16T22:42:53.436Z,60.70
2018-08-16T22:45:20.794Z,60.55
2018-08-16T22:47:48.058Z,61.49
2018-08-16T22:50:15.440Z,61.77
2018-08-16T22:52:42.777Z,61.91
2018-08-16T22:55:10.105Z,61.95
2018-08-16T22:57:37.404Z,62.06
2018-08-16T23:00:05.885Z,63.12
2018-08-16T23:02:33.128Z,63.28
2018-08-16T23:05:00.537Z,62.80
2018-08-16T23:07:27.766Z,62.65
2018-08-16T23:09:55.233Z,62.49
2018-08-16T23:12:22.551Z,62.63
2018-08-16T23:14:49.836Z,62.89
2018-08-16T23:17:17.064Z,63.08
2018-08-16T23:19:44.300Z,63.34
2018-08-16T23:25:04.409Z,63.28
2018-08-16T23:27:31.741Z,62.65
2018-08-16T23:29:59.053Z,63.63
2018-08-16T23:32:26.472Z,63.39
2018-08-16T23:34:53.818Z,63.28
2018-08-16T23:37:21.290Z,63.36
2018-08-16T23:39:48.568Z,63.48
2018-08-16T23:42:16.390Z,63.15
2018-08-16T23:44:43.777Z,62.61
2018-08-16T23:47:11.097Z,63.28
2018-08-16T23:49:38.367Z,63.17
2018-08-16T23:52:05.685Z,63.53
2018-08-16T23:54:32.890Z,63.91
2018-08-16T23:59:52.794Z,64.66
